Time;durP1;ratioP1;P1;durP2;ratioP2;P2;SDS_P1;SDS_P2;PMS_P1;PMS_P2;Temp;Humidity;BMP_temperature;BMP_pressure;BME280_temperature;BME280_humidity;BME280_pressure;Samples;Min_cycle;Max_cycle;Signal;HPM_P1;HPM_P2
2022/03/21 00:02:01;;;;;;;49.80;34.17;;;5.20;99.90;;;;;;4996632;28;20046;-95
2022/03/21 00:04:27;;;;;;;49.35;31.75;;;5.20;99.90;;;;;;4995927;28;20371;-94
2022/03/21 00:06:52;;;;;;;43.28;31.95;;;5.80;99.90;;;;;;4996131;28;20044;-94
2022/03/21 00:09:18;;;;;;;44.88;31.55;;;5.40;99.90;;;;;;4995916;28;20448;-94
2022/03/21 00:11:44;;;;;;;43.65;30.27;;;6.30;99.90;;;;;;4995787;28;20057;-94
2022/03/21 00:14:11;;;;;;;46.33;30.45;;;6.00;99.90;;;;;;4976376;28;20085;-94
2022/03/21 00:16:38;;;;;;;46.13;30.60;;;6.50;99.90;;;;;;4976389;28;20497;-94
2022/03/21 00:19:04;;;;;;;40.75;29.42;;;6.70;99.90;;;;;;4975237;28;20042;-95
2022/03/21 00:21:34;;;;;;;43.78;28.88;;;6.80;99.90;;;;;;4978802;28;20044;-95
2022/03/21 00:24:02;;;;;;;38.47;27.92;;;6.30;99.90;;;;;;4978013;28;20053;-95
2022/03/21 00:26:28;;;;;;;43.92;29.42;;;6.00;99.90;;;;;;4975310;28;20085;-94
2022/03/21 00:28:54;;;;;;;45.30;30.63;;;6.00;99.90;;;;;;4976172;28;20081;-94
2022/03/21 00:31:20;;;;;;;40.97;28.08;;;7.00;99.90;;;;;;4976020;28;20046;-95
2022/03/21 00:33:45;;;;;;;46.17;28.42;;;6.40;99.90;;;;;;4976167;28;20516;-94
2022/03/21 00:36:11;;;;;;;40.85;29.17;;;6.40;99.90;;;;;;4976395;28;20042;-95
2022/03/21 00:38:37;;;;;;;40.60;27.95;;;7.10;99.90;;;;;;4976547;28;20516;-95
2022/03/21 00:41:05;;;;;;;44.60;26.85;;;6.70;99.90;;;;;;4975540;28;20379;-95
2022/03/21 00:43:31;;;;;;;39.92;26.55;;;6.70;99.90;;;;;;4976714;28;20050;-95
2022/03/21 00:45:57;;;;;;;38.67;26.42;;;5.90;99.90;;;;;;4976281;28;20069;-95
2022/03/21 00:48:25;;;;;;;39.88;27.52;;;5.90;99.90;;;;;;4975918;28;20049;-95
2022/03/21 00:50:52;;;;;;;35.40;25.50;;;6.70;99.90;;;;;;4976700;28;20073;-95
2022/03/21 00:53:18;;;;;;;38.83;25.80;;;6.20;99.90;;;;;;4978488;28;20107;-94
2022/03/21 00:55:46;;;;;;;41.08;27.02;;;5.80;99.90;;;;;;4978886;28;20038;-95
2022/03/21 00:58:12;;;;;;;37.30;25.27;;;6.70;99.90;;;;;;4979135;28;20045;-95
2022/03/21 01:00:38;;;;;;;38.55;24.83;;;6.50;99.90;;;;;;4979648;28;20049;-94
2022/03/21 01:03:04;;;;;;;36.97;24.70;;;6.60;99.90;;;;;;5011022;28;20052;-94
2022/03/21 01:05:31;;;;;;;37.17;24.13;;;6.00;99.90;;;;;;5019270;28;20150;-94
2022/03/21 01:07:58;;;;;;;36.55;24.20;;;6.90;99.90;;;;;;5017443;28;20493;-94
2022/03/21 01:10:26;;;;;;;40.08;24.90;;;6.50;99.90;;;;;;5017836;28;20183;-94
2022/03/21 01:12:53;;;;;;;43.72;24.55;;;5.90;99.90;;;;;;5019148;28;20080;-94
2022/03/21 01:15:22;;;;;;;40.08;23.65;;;6.80;99.90;;;;;;5017316;28;20057;-95
2022/03/21 01:17:48;;;;;;;33.72;22.45;;;6.00;99.90;;;;;;5018289;28;20059;-95
2022/03/21 01:20:16;;;;;;;36.53;24.42;;;5.80;99.90;;;;;;5018276;28;20123;-95
2022/03/21 01:22:42;;;;;;;34.55;21.75;;;5.80;99.90;;;;;;5018095;28;20103;-94
2022/03/21 01:25:08;;;;;;;35.50;22.67;;;6.30;99.90;;;;;;5018219;28;20048;-95
2022/03/21 01:27:35;;;;;;;38.00;23.63;;;5.60;99.90;;;;;;5019501;28;20040;-95
2022/03/21 01:30:03;;;;;;;37.75;23.30;;;5.20;99.90;;;;;;5017262;28;20550;-95
2022/03/21 01:32:28;;;;;;;37.58;22.08;;;6.40;99.90;;;;;;5018289;28;20401;-94
2022/03/21 01:34:54;;;;;;;34.92;22.40;;;4.70;99.90;;;;;;5018529;28;20108;-95
2022/03/21 01:37:19;;;;;;;33.05;21.83;;;4.80;99.90;;;;;;5017563;28;20040;-92
2022/03/21 01:39:45;;;;;;;36.45;22.55;;;6.50;99.90;;;;;;5018852;28;20091;-92
2022/03/21 01:42:11;;;;;;;34.22;21.42;;;6.00;99.90;;;;;;5016929;28;20124;-93
2022/03/21 01:44:36;;;;;;;31.83;21.27;;;6.30;99.90;;;;;;5017124;28;20407;-95
2022/03/21 01:47:03;;;;;;;35.25;21.30;;;6.40;99.90;;;;;;5016895;28;20127;-92
2022/03/21 01:49:28;;;;;;;34.55;21.63;;;5.60;99.90;;;;;;5017958;28;20048;-92
2022/03/21 01:51:54;;;;;;;31.13;20.15;;;5.40;99.90;;;;;;5017387;28;20037;-92
2022/03/21 01:57:05;;;;;;;28.92;19.17;;;6.30;99.90;;;;;;5033199;28;20052;-92
2022/03/21 01:59:32;;;;;;;33.42;20.77;;;5.50;99.90;;;;;;5018431;28;20045;-94
2022/03/21 02:01:58;;;;;;;29.85;19.95;;;5.30;99.90;;;;;;5017916;28;20481;-93
2022/03/21 02:04:23;;;;;;;31.35;20.38;;;6.00;99.90;;;;;;5017824;28;20045;-93
2022/03/21 02:06:49;;;;;;;38.33;19.35;;;5.80;99.90;;;;;;5018276;28;20128;-92
2022/03/21 02:09:15;;;;;;;30.23;19.23;;;6.10;99.90;;;;;;5009302;28;20504;-92
2022/03/21 02:11:41;;;;;;;35.83;19.42;;;5.80;99.90;;;;;;4999700;28;20056;-95
2022/03/21 02:14:08;;;;;;;33.13;20.08;;;5.90;99.90;;;;;;4998725;28;20179;-95
2022/03/21 02:16:36;;;;;;;33.85;20.65;;;5.50;99.90;;;;;;4998886;28;20053;-93
2022/03/21 02:19:13;;;;;;;32.00;20.08;;;6.30;99.90;;;;;;4997277;28;20128;-92
2022/03/21 02:22:12;;;;;;;30.88;20.45;;;5.10;99.90;;;;;;4998577;28;20045;-92
2022/03/21 02:24:54;;;;;;;33.38;19.23;;;5.00;99.90;;;;;;4984808;28;20497;-92
2022/03/21 02:27:21;;;;;;;31.13;20.40;;;4.90;99.90;;;;;;4977256;28;20123;-92
2022/03/21 02:29:49;;;;;;;29.60;18.80;;;4.80;99.90;;;;;;4978827;28;20046;-92
2022/03/21 02:32:16;;;;;;;30.50;19.88;;;4.70;99.90;;;;;;4977227;28;20054;-92
2022/03/21 02:34:41;;;;;;;36.28;21.50;;;5.10;99.90;;;;;;4978388;28;20125;-92
2022/03/21 02:37:11;;;;;;;31.98;19.88;;;4.70;99.90;;;;;;4977783;28;20605;-92
2022/03/21 02:39:37;;;;;;;36.45;20.45;;;5.20;99.90;;;;;;4977715;28;20653;-92
2022/03/21 02:42:04;;;;;;;32.28;20.08;;;4.60;99.90;;;;;;4977478;28;20046;-92
2022/03/21 02:44:34;;;;;;;29.80;21.15;;;4.60;99.90;;;;;;4977666;28;20042;-92
2022/03/21 02:47:00;;;;;;;33.67;21.02;;;4.70;99.90;;;;;;4976850;28;20056;-93
2022/03/21 02:49:26;;;;;;;33.33;21.27;;;4.80;99.90;;;;;;4977941;28;20042;-92
2022/03/21 02:51:52;;;;;;;36.53;22.27;;;5.10;99.90;;;;;;4978019;28;20041;-92
2022/03/21 02:54:21;;;;;;;33.25;22.13;;;4.50;99.90;;;;;;4976725;28;20521;-92
2022/03/21 02:56:46;;;;;;;36.38;22.42;;;4.90;99.90;;;;;;4977516;28;20038;-93
2022/03/21 02:59:12;;;;;;;33.00;21.88;;;3.40;99.90;;;;;;4976530;28;20048;-92
2022/03/21 03:01:38;;;;;;;42.65;24.52;;;4.40;99.90;;;;;;4980201;28;20129;-92
2022/03/21 03:04:04;;;;;;;43.20;24.70;;;4.30;99.90;;;;;;4996388;28;20053;-92
2022/03/21 03:06:30;;;;;;;37.05;25.33;;;4.60;99.90;;;;;;4997022;28;20049;-92
2022/03/21 03:08:56;;;;;;;41.13;25.13;;;4.40;99.90;;;;;;4996059;28;20053;-95
2022/03/21 03:11:22;;;;;;;43.50;26.55;;;4.20;99.90;;;;;;4995443;28;20049;-95
2022/03/21 03:13:48;;;;;;;43.90;25.05;;;4.60;99.90;;;;;;4996746;28;20053;-94
2022/03/21 03:16:14;;;;;;;39.70;25.23;;;4.90;99.90;;;;;;4994183;28;20572;-94
2022/03/21 03:18:44;;;;;;;38.25;25.15;;;4.70;99.90;;;;;;4996429;28;20049;-95
2022/03/21 03:21:10;;;;;;;36.47;23.58;;;3.90;99.90;;;;;;4995622;28;20061;-95
2022/03/21 03:23:38;;;;;;;39.88;24.48;;;3.90;99.90;;;;;;4996348;28;20049;-92
2022/03/21 03:26:05;;;;;;;41.38;24.80;;;3.50;99.90;;;;;;4996648;28;20493;-92
2022/03/21 03:28:31;;;;;;;42.97;24.75;;;3.60;99.90;;;;;;4996164;28;20049;-92
2022/03/21 03:31:00;;;;;;;46.38;26.75;;;4.20;99.90;;;;;;4997240;28;20048;-92
2022/03/21 03:33:26;;;;;;;48.85;29.52;;;3.50;99.90;;;;;;4996400;28;20052;-92
2022/03/21 03:35:52;;;;;;;44.53;28.02;;;4.30;99.90;;;;;;4996447;28;20049;-92
2022/03/21 03:38:18;;;;;;;51.63;28.55;;;3.90;99.90;;;;;;4995358;28;20148;-92
2022/03/21 03:40:44;;;;;;;46.85;29.85;;;4.00;99.90;;;;;;4996763;28;20048;-92
2022/03/21 03:43:11;;;;;;;46.85;29.80;;;3.40;99.90;;;;;;4995492;28;20054;-92
2022/03/21 03:45:38;;;;;;;52.03;28.70;;;3.80;99.90;;;;;;4996992;28;20038;-91
2022/03/21 03:48:04;;;;;;;48.00;30.33;;;4.40;99.90;;;;;;4996460;28;20045;-92
2022/03/21 03:50:30;;;;;;;53.42;30.35;;;3.40;99.90;;;;;;4994244;28;20045;-92
2022/03/21 03:52:56;;;;;;;44.50;28.77;;;3.90;99.90;;;;;;4976729;28;20057;-92
2022/03/21 03:55:22;;;;;;;45.13;27.15;;;4.60;99.90;;;;;;4976528;28;20049;-92
2022/03/21 03:57:48;;;;;;;47.25;29.42;;;3.40;99.90;;;;;;4975798;28;20045;-92
2022/03/21 04:00:15;;;;;;;46.40;27.83;;;3.20;99.90;;;;;;4976574;28;20049;-92
2022/03/21 04:05:28;;;;;;;51.15;27.85;;;3.10;99.90;;;;;;4992495;28;20046;-92
2022/03/21 04:07:55;;;;;;;44.80;28.00;;;3.10;99.90;;;;;;4976698;28;20034;-92
2022/03/21 04:10:21;;;;;;;45.90;27.83;;;3.10;99.90;;;;;;4992825;28;20117;-92
2022/03/21 04:12:49;;;;;;;42.40;26.35;;;3.10;99.90;;;;;;5011969;28;20124;-92
2022/03/21 04:15:16;;;;;;;49.35;28.77;;;3.50;99.90;;;;;;4995453;28;20145;-92
2022/03/21 04:17:42;;;;;;;49.50;27.30;;;3.00;99.90;;;;;;4995705;28;20709;-92
2022/03/21 04:20:11;;;;;;;46.65;27.00;;;3.60;99.90;;;;;;4995558;28;20400;-91
2022/03/21 04:22:37;;;;;;;41.97;26.85;;;3.00;99.90;;;;;;4996097;28;20073;-92
2022/03/21 04:25:06;;;;;;;44.92;26.27;;;2.90;99.90;;;;;;4998178;28;20476;-93
2022/03/21 04:27:32;;;;;;;45.70;25.10;;;3.00;99.90;;;;;;5017634;28;20188;-92
2022/03/21 04:29:59;;;;;;;45.47;25.63;;;2.50;99.90;;;;;;5019079;28;20091;-92
2022/03/21 04:32:25;;;;;;;42.72;26.38;;;3.00;99.90;;;;;;5018981;28;20083;-92
2022/03/21 04:34:51;;;;;;;42.13;25.58;;;3.60;99.90;;;;;;5019902;28;20044;-92
2022/03/21 04:37:17;;;;;;;40.70;25.45;;;3.00;99.90;;;;;;5018399;28;20045;-92
2022/03/21 04:39:43;;;;;;;44.78;24.73;;;2.90;99.90;;;;;;5019191;28;20048;-92
2022/03/21 04:42:08;;;;;;;35.80;24.10;;;2.60;99.90;;;;;;5018696;28;20493;-92
2022/03/21 04:44:34;;;;;;;46.85;25.50;;;4.10;99.90;;;;;;5019344;28;20041;-92
2022/03/21 04:47:00;;;;;;;42.30;24.38;;;3.50;99.90;;;;;;5018714;28;20048;-92
2022/03/21 04:49:26;;;;;;;46.53;25.80;;;2.90;99.90;;;;;;5018985;28;20041;-91
2022/03/21 04:51:51;;;;;;;43.38;24.63;;;2.80;99.90;;;;;;5019215;28;20079;-92
2022/03/21 04:54:17;;;;;;;43.65;25.50;;;3.90;99.90;;;;;;5017949;28;20041;-92
2022/03/21 04:56:43;;;;;;;43.30;25.67;;;2.80;99.90;;;;;;5018963;28;20056;-92
2022/03/21 04:59:09;;;;;;;39.58;24.35;;;2.80;99.90;;;;;;5018358;28;20044;-92
2022/03/21 05:01:36;;;;;;;51.58;25.92;;;2.90;99.90;;;;;;5017840;28;20036;-92
2022/03/21 05:04:02;;;;;;;45.33;24.98;;;2.80;99.90;;;;;;5018808;28;20045;-92
2022/03/21 05:06:28;;;;;;;44.13;24.83;;;3.10;99.90;;;;;;5018541;28;20136;-91
2022/03/21 05:08:54;;;;;;;45.67;25.38;;;2.70;99.90;;;;;;5014017;28;20140;-91
2022/03/21 05:11:19;;;;;;;41.33;25.67;;;2.50;99.90;;;;;;4997563;28;20050;-92
2022/03/21 05:13:45;;;;;;;44.63;25.17;;;3.20;99.90;;;;;;4998632;28;20466;-91
2022/03/21 05:16:11;;;;;;;44.25;24.95;;;2.70;99.90;;;;;;4993793;28;20041;-92
2022/03/21 05:18:37;;;;;;;42.60;22.60;;;2.70;99.90;;;;;;4991274;28;20486;-92
2022/03/21 05:21:05;;;;;;;47.80;24.65;;;2.50;99.90;;;;;;4977666;28;20413;-92
2022/03/21 05:31:44;;;;;;;44.47;24.92;;;2.50;99.90;;;;;;4997716;28;20061;-91
2022/03/21 05:36:54;;;;;;;40.30;23.95;;;2.50;99.90;;;;;;4996751;28;20054;-92
2022/03/21 05:39:23;;;;;;;44.67;24.90;;;2.60;99.90;;;;;;4977788;28;20137;-91
2022/03/21 05:41:51;;;;;;;38.17;22.85;;;2.40;99.90;;;;;;4978956;28;20516;-92
2022/03/21 05:44:17;;;;;;;41.40;24.17;;;2.30;99.90;;;;;;4981896;28;20038;-92
2022/03/21 05:46:43;;;;;;;46.00;23.63;;;3.60;99.90;;;;;;4979518;28;20133;-92
2022/03/21 05:49:09;;;;;;;34.08;21.13;;;3.00;99.90;;;;;;4979729;28;20052;-93
2022/03/21 05:51:37;;;;;;;36.55;21.40;;;2.40;99.90;;;;;;4980501;28;20088;-93
2022/03/21 05:54:05;;;;;;;40.88;22.08;;;2.30;99.90;;;;;;4978927;28;20079;-93
2022/03/21 05:56:32;;;;;;;35.15;21.83;;;1.80;99.90;;;;;;4979875;28;20434;-93
2022/03/21 06:00:20;;;;;;;44.38;23.15;;;2.60;99.90;;;;;;4979355;28;20482;-92
2022/03/21 06:01:45;;;;;;;44.90;23.83;;;2.40;99.90;;;;;;4996005;28;20124;-93
2022/03/21 06:04:11;;;;;;;46.20;23.60;;;1.90;99.90;;;;;;4979697;28;20042;-93
2022/03/21 06:06:36;;;;;;;41.03;22.23;;;3.60;99.90;;;;;;4979431;28;20077;-92
2022/03/21 06:09:03;;;;;;;36.65;22.17;;;3.10;99.90;;;;;;4984930;28;20060;-93
2022/03/21 06:11:29;;;;;;;41.13;24.33;;;1.90;99.90;;;;;;4997287;28;20055;-92
2022/03/21 06:13:55;;;;;;;38.00;24.23;;;1.80;99.90;;;;;;4998381;28;20100;-92
2022/03/21 06:16:21;;;;;;;40.90;23.80;;;1.90;99.90;;;;;;4997351;28;20085;-93
2022/03/21 06:18:46;;;;;;;39.97;22.65;;;2.00;99.90;;;;;;4997830;28;20096;-92
2022/03/21 06:21:13;;;;;;;39.92;22.38;;;2.10;99.90;;;;;;4996625;28;20073;-93
2022/03/21 06:23:39;;;;;;;41.17;22.58;;;2.00;99.90;;;;;;4997809;28;20049;-93
2022/03/21 06:26:07;;;;;;;36.25;22.35;;;1.50;99.90;;;;;;4997173;28;20421;-93
2022/03/21 06:28:35;;;;;;;42.85;23.25;;;2.60;99.90;;;;;;5000495;28;20045;-94
2022/03/21 06:31:01;;;;;;;44.58;25.20;;;2.70;99.90;;;;;;4999068;28;20099;-94
2022/03/21 06:33:29;;;;;;;41.97;24.77;;;3.00;99.90;;;;;;5014842;28;20049;-94
2022/03/21 06:35:57;;;;;;;39.78;23.55;;;2.00;99.90;;;;;;4999689;28;20080;-94
2022/03/21 06:38:23;;;;;;;41.22;24.48;;;2.20;99.90;;;;;;4998422;28;20084;-94
2022/03/21 06:40:49;;;;;;;40.42;23.30;;;2.20;99.90;;;;;;5015564;28;20124;-94
2022/03/21 06:43:17;;;;;;;37.40;21.80;;;2.90;99.90;;;;;;5013122;28;20045;-93
2022/03/21 06:45:44;;;;;;;40.55;22.23;;;2.30;99.90;;;;;;4996701;28;20511;-94
2022/03/21 06:48:09;;;;;;;44.03;23.00;;;2.30;99.90;;;;;;4999224;28;20049;-94
2022/03/21 06:50:35;;;;;;;43.28;25.88;;;2.10;99.90;;;;;;5012394;28;20456;-93
2022/03/21 06:53:01;;;;;;;45.95;26.02;;;2.60;99.90;;;;;;4997379;28;20076;-93
2022/03/21 06:55:27;;;;;;;48.70;25.00;;;3.20;99.90;;;;;;4997846;28;20115;-93
2022/03/21 06:57:55;;;;;;;43.10;25.15;;;2.90;99.90;;;;;;5013018;28;20045;-93
2022/03/21 07:00:21;;;;;;;38.83;23.35;;;3.20;99.90;;;;;;5013977;28;20404;-93
2022/03/21 07:02:46;;;;;;;46.30;26.17;;;3.40;99.90;;;;;;4998908;28;20129;-94
2022/03/21 07:05:12;;;;;;;41.95;24.42;;;2.20;99.90;;;;;;4980453;28;20445;-92
2022/03/21 07:07:40;;;;;;;44.85;24.42;;;4.40;99.90;;;;;;4977279;28;20049;-95
2022/03/21 07:10:07;;;;;;;43.40;26.17;;;3.30;99.90;;;;;;4994107;28;20422;-94
2022/03/21 07:12:35;;;;;;;44.05;26.95;;;3.40;99.90;;;;;;4995206;28;20127;-96
2022/03/21 07:15:03;;;;;;;49.15;27.48;;;3.40;99.90;;;;;;4984727;28;20033;-96
2022/03/21 07:17:28;;;;;;;45.85;26.48;;;3.50;99.90;;;;;;4995679;28;20045;-95
2022/03/21 07:19:54;;;;;;;44.42;27.17;;;4.40;99.90;;;;;;4991354;28;20053;-95
2022/03/21 07:22:23;;;;;;;43.13;26.15;;;5.00;99.90;;;;;;4999369;28;20524;-95
2022/03/21 07:24:54;;;;;;;40.03;26.00;;;5.00;99.90;;;;;;4998576;28;20064;-96
2022/03/21 07:27:20;;;;;;;42.97;25.77;;;3.30;99.90;;;;;;4995180;28;20049;-95
2022/03/21 07:29:56;;;;;;;42.10;27.23;;;4.10;99.90;;;;;;4997420;28;20041;-95
2022/03/21 07:32:59;;;;;;;51.45;29.77;;;4.00;99.90;;;;;;4999857;28;20424;-96
2022/03/21 07:35:45;;;;;;;46.60;28.67;;;4.30;99.90;;;;;;4999257;28;20052;-96
2022/03/21 07:38:11;;;;;;;43.70;28.20;;;4.30;99.90;;;;;;4986379;28;20045;-95
2022/03/21 07:40:37;;;;;;;40.85;27.30;;;4.70;99.90;;;;;;4980815;28;20058;-94
2022/03/21 07:43:03;;;;;;;43.80;27.67;;;4.80;99.90;;;;;;4980216;28;20490;-95
2022/03/21 07:48:16;;;;;;;42.65;26.33;;;4.90;99.90;;;;;;4998274;28;20095;-95
2022/03/21 07:50:42;;;;;;;40.97;26.17;;;5.00;99.90;;;;;;4985167;28;20077;-94
2022/03/21 07:53:09;;;;;;;38.08;25.80;;;5.00;99.90;;;;;;4988802;28;20088;-95
2022/03/21 07:55:34;;;;;;;42.45;25.58;;;5.30;99.90;;;;;;4992787;28;20051;-94
2022/03/21 07:58:01;;;;;;;40.63;25.42;;;5.90;99.90;;;;;;4991716;28;20603;-94
2022/03/21 08:00:47;;;;;;;34.75;23.85;;;5.60;99.90;;;;;;4982834;28;20401;-92
2022/03/21 08:03:16;;;;;;;39.45;24.10;;;5.70;99.90;;;;;;4988131;28;20547;-93
2022/03/21 08:05:42;;;;;;;40.00;24.40;;;6.00;99.90;;;;;;5001179;28;20049;-95
2022/03/21 08:08:08;;;;;;;40.20;24.55;;;5.90;99.90;;;;;;4996105;28;20107;-96
2022/03/21 08:10:35;;;;;;;40.55;24.83;;;5.60;99.90;;;;;;5003427;28;20053;-94
2022/03/21 08:13:01;;;;;;;37.92;24.13;;;6.10;99.90;;;;;;5001512;28;20088;-96
2022/03/21 08:15:27;;;;;;;37.35;23.98;;;6.90;99.90;;;;;;5003998;28;20600;-95
2022/03/21 08:17:57;;;;;;;35.25;23.02;;;6.90;99.90;;;;;;5006068;28;20068;-95
2022/03/21 08:20:24;;;;;;;39.08;24.17;;;6.30;99.90;;;;;;5002314;28;20503;-96
2022/03/21 08:22:52;;;;;;;34.88;23.52;;;6.40;99.90;;;;;;4999623;28;20505;-95
2022/03/21 08:25:22;;;;;;;36.78;22.98;;;6.90;99.90;;;;;;5003046;28;20057;-92
2022/03/21 08:27:48;;;;;;;34.25;22.67;;;7.30;99.90;;;;;;4997699;28;20085;-93
2022/03/21 08:30:16;;;;;;;34.70;22.92;;;7.50;99.90;;;;;;5005605;28;20049;-93
2022/03/21 08:32:45;;;;;;;39.75;23.60;;;6.80;99.90;;;;;;4998717;28;20075;-93
2022/03/21 08:35:16;;;;;;;32.17;21.80;;;7.30;99.90;;;;;;4997714;28;20053;-96
2022/03/21 08:37:42;;;;;;;33.33;21.92;;;7.10;99.90;;;;;;5002568;28;20037;-94
2022/03/21 08:40:09;;;;;;;34.00;22.08;;;7.90;99.90;;;;;;5014105;28;20077;-96
2022/03/21 08:42:36;;;;;;;37.58;22.50;;;7.30;99.90;;;;;;5005269;28;20386;-94
2022/03/21 08:45:59;;;;;;;32.55;22.17;;;6.80;99.90;;;;;;5001611;28;20085;-95
2022/03/21 08:48:05;;;;;;;34.10;22.83;;;7.70;99.90;;;;;;5009344;28;20493;-95
2022/03/21 08:50:37;;;;;;;34.80;22.67;;;7.70;99.90;;;;;;5001896;28;20042;-95
2022/03/21 08:53:08;;;;;;;30.67;21.27;;;7.80;99.90;;;;;;5000408;28;20051;-96
2022/03/21 08:55:34;;;;;;;31.15;21.67;;;8.00;99.90;;;;;;5016576;23;20084;-93
2022/03/21 08:58:00;;;;;;;40.75;22.52;;;8.00;99.90;;;;;;5010551;28;20063;-93
2022/03/21 09:00:26;;;;;;;36.38;22.35;;;8.10;99.90;;;;;;5025163;28;20485;-94
2022/03/21 09:02:54;;;;;;;29.52;21.45;;;8.20;99.90;;;;;;5011058;28;20115;-95
2022/03/21 09:05:21;;;;;;;33.92;22.60;;;8.40;99.90;;;;;;5009941;28;20488;-95
2022/03/21 09:07:47;;;;;;;33.75;21.98;;;8.50;99.90;;;;;;5012006;28;20037;-94
2022/03/21 09:10:14;;;;;;;34.13;21.13;;;8.60;99.90;;;;;;5011987;28;20068;-93
2022/03/21 09:12:42;;;;;;;33.42;20.05;;;9.50;99.90;;;;;;5014032;28;20092;-95
2022/03/21 09:15:08;;;;;;;33.25;21.08;;;9.00;99.90;;;;;;5004179;28;20041;-96
2022/03/21 09:17:37;;;;;;;34.78;21.50;;;8.90;99.90;;;;;;5011737;28;20053;-95
2022/03/21 09:20:02;;;;;;;32.58;21.25;;;9.10;99.90;;;;;;5023399;28;20042;-94
2022/03/21 09:22:31;;;;;;;37.42;20.75;;;9.20;99.90;;;;;;5007715;28;20045;-94
2022/03/21 09:24:58;;;;;;;32.22;20.45;;;9.30;99.90;;;;;;5026977;28;20050;-93
2022/03/21 09:27:24;;;;;;;49.95;20.67;;;9.40;99.90;;;;;;4998471;28;20037;-93
2022/03/21 09:29:50;;;;;;;30.50;20.25;;;10.40;99.90;;;;;;5003583;28;20045;-94
2022/03/21 09:32:17;;;;;;;32.83;21.25;;;9.70;99.90;;;;;;5004194;28;20049;-95
2022/03/21 09:34:44;;;;;;;28.38;19.85;;;9.90;99.90;;;;;;5006562;28;20041;-93
2022/03/21 09:37:09;;;;;;;29.52;19.30;;;9.70;99.90;;;;;;5025177;28;20470;-90
2022/03/21 09:39:35;;;;;;;32.38;21.65;;;9.80;99.90;;;;;;4998768;28;20160;-93
2022/03/21 09:42:02;;;;;;;31.25;21.05;;;10.80;99.90;;;;;;5005029;28;20469;-95
2022/03/21 09:44:28;;;;;;;30.10;19.88;;;10.00;99.90;;;;;;5002783;28;20388;-95
2022/03/21 09:46:56;;;;;;;34.30;19.85;;;11.10;99.90;;;;;;4992413;28;20540;-96
2022/03/21 09:49:30;;;;;;;31.88;18.90;;;10.20;99.90;;;;;;4998535;28;20074;-95
2022/03/21 09:51:59;;;;;;;26.63;19.13;;;10.30;99.90;;;;;;4984237;28;20052;-94
2022/03/21 09:54:28;;;;;;;31.50;18.77;;;10.40;99.90;;;;;;4986926;28;20058;-94
2022/03/21 09:56:56;;;;;;;33.15;19.33;;;10.50;99.90;;;;;;4996585;28;20093;-92
2022/03/21 09:59:23;;;;;;;31.25;18.25;;;10.60;99.90;;;;;;4990361;28;20041;-95
2022/03/21 10:01:49;;;;;;;26.85;17.90;;;10.70;99.90;;;;;;5004911;28;20083;-96
2022/03/21 10:04:14;;;;;;;28.02;18.52;;;11.00;99.90;;;;;;5020762;28;20095;-95
2022/03/21 10:06:40;;;;;;;28.38;18.50;;;10.80;99.90;;;;;;4995991;28;20500;-88
2022/03/21 10:09:10;;;;;;;28.52;18.27;;;10.90;99.90;;;;;;4994157;28;20054;-93
2022/03/21 10:11:37;;;;;;;30.58;17.75;;;10.90;99.90;;;;;;4983858;28;20049;-94
2022/03/21 10:14:23;;;;;;;29.05;18.38;;;11.00;99.90;;;;;;5004452;28;20045;-93
2022/03/21 10:16:57;;;;;;;29.02;17.55;;;11.00;99.90;;;;;;4998876;28;20049;-94
2022/03/21 10:19:22;;;;;;;25.15;18.98;;;11.10;99.90;;;;;;5004809;28;20049;-93
2022/03/21 10:22:04;;;;;;;31.10;17.75;;;11.20;99.90;;;;;;4991888;28;20037;-93
2022/03/21 10:24:36;;;;;;;27.23;17.42;;;11.20;99.90;;;;;;4989826;28;20052;-93
2022/03/21 10:27:03;;;;;;;30.48;17.63;;;11.30;99.90;;;;;;4996618;28;20124;-93
2022/03/21 10:29:28;;;;;;;27.52;18.13;;;11.30;99.90;;;;;;4996613;28;20037;-84
2022/03/21 10:31:54;;;;;;;27.17;17.77;;;11.30;99.90;;;;;;4982150;28;20507;-84
2022/03/21 10:34:23;;;;;;;27.50;17.92;;;11.40;99.90;;;;;;4976595;28;20046;-82
2022/03/21 10:37:06;;;;;;;25.73;17.73;;;11.50;99.90;;;;;;4978027;28;20513;-80
2022/03/21 10:39:34;;;;;;;26.73;17.70;;;11.50;99.90;;;;;;4995641;28;20085;-79
2022/03/21 10:42:04;;;;;;;30.13;18.45;;;11.50;99.90;;;;;;4983436;28;20392;-80
2022/03/21 10:44:30;;;;;;;23.48;16.75;;;11.50;99.90;;;;;;4975717;28;20049;-80
2022/03/21 10:46:59;;;;;;;25.80;16.10;;;11.50;99.90;;;;;;4994743;28;20559;-80
2022/03/21 10:49:32;;;;;;;24.67;17.38;;;11.50;99.90;;;;;;4994330;28;20539;-79
2022/03/21 10:51:58;;;;;;;28.45;17.40;;;11.60;99.90;;;;;;4975448;28;20037;-79
2022/03/21 10:54:41;;;;;;;24.23;17.20;;;11.70;99.90;;;;;;4974773;28;20046;-80
2022/03/21 10:57:26;;;;;;;24.60;17.23;;;11.70;99.90;;;;;;4987667;28;20131;-79
2022/03/21 11:00:10;;;;;;;31.30;18.83;;;11.80;99.90;;;;;;5005496;28;20766;-81
2022/03/21 11:02:47;;;;;;;28.80;17.52;;;11.90;99.90;;;;;;4992098;28;20041;-80
2022/03/21 11:05:13;;;;;;;23.58;17.85;;;12.00;99.90;;;;;;4992530;28;20107;-80
2022/03/21 11:07:39;;;;;;;25.90;17.30;;;12.10;99.90;;;;;;4975656;28;20049;-80
2022/03/21 11:10:06;;;;;;;26.92;17.33;;;12.10;99.90;;;;;;4975728;28;20049;-80
2022/03/21 11:12:33;;;;;;;22.25;16.30;;;12.20;99.90;;;;;;4977898;28;20042;-79
2022/03/21 11:14:59;;;;;;;25.08;16.55;;;12.20;99.90;;;;;;4991095;28;20050;-80
2022/03/21 11:17:25;;;;;;;21.67;15.57;;;12.30;99.90;;;;;;4985731;28;20053;-79
2022/03/21 11:19:52;;;;;;;25.70;17.40;;;12.40;99.90;;;;;;4992079;28;20132;-80
2022/03/21 11:22:18;;;;;;;23.17;16.77;;;12.40;99.90;;;;;;4984434;28;20599;-79
2022/03/21 11:24:44;;;;;;;23.55;17.05;;;12.40;99.90;;;;;;4986844;28;20132;-83
2022/03/21 11:27:22;;;;;;;28.00;17.27;;;12.50;99.90;;;;;;4998180;28;20541;-82
2022/03/21 11:30:00;;;;;;;26.73;16.85;;;12.50;99.90;;;;;;5003067;28;20125;-81
2022/03/21 11:32:47;;;;;;;27.17;17.42;;;12.50;99.90;;;;;;4985721;28;20057;-83
2022/03/21 11:35:17;;;;;;;31.45;18.25;;;12.50;99.90;;;;;;4990745;28;20079;-84
2022/03/21 11:37:43;;;;;;;28.67;16.98;;;12.60;99.90;;;;;;5001110;28;20556;-81
2022/03/21 11:40:27;;;;;;;30.95;18.00;;;12.70;99.90;;;;;;5002360;28;20140;-77
2022/03/21 11:42:56;;;;;;;26.85;18.38;;;12.70;99.90;;;;;;4991500;28;20038;-78
2022/03/21 11:45:25;;;;;;;29.27;17.73;;;13.20;99.90;;;;;;5001983;28;20057;-79
2022/03/21 11:48:17;;;;;;;36.13;20.15;;;12.90;99.90;;;;;;5000660;28;20112;-78
2022/03/21 11:50:50;;;;;;;28.20;17.48;;;12.90;99.90;;;;;;5008565;28;20049;-78
2022/03/21 11:53:26;;;;;;;47.63;24.88;;;12.90;99.90;;;;;;4980642;28;20077;-79
2022/03/21 11:55:52;;;;;;;33.00;18.33;;;12.90;99.90;;;;;;4995881;28;20438;-80
2022/03/21 11:58:21;;;;;;;23.20;16.20;;;13.20;99.90;;;;;;4998815;28;20589;-83
2022/03/21 12:01:08;;;;;;;29.63;17.00;;;13.00;99.90;;;;;;4985212;28;20050;-78
2022/03/21 12:03:35;;;;;;;28.77;17.25;;;13.00;99.90;;;;;;4996406;28;20038;-79
2022/03/21 12:06:19;;;;;;;30.55;17.13;;;13.00;99.90;;;;;;4974156;28;20045;-79
2022/03/21 12:08:48;;;;;;;33.08;16.08;;;13.10;99.90;;;;;;4995782;28;20038;-78
2022/03/21 12:11:52;;;;;;;26.15;16.40;;;13.20;99.90;;;;;;4979200;28;20049;-79
2022/03/21 12:14:19;;;;;;;;;;;13.30;99.90;;;;;;4991985;28;20057;-78
2022/03/21 12:16:46;;;;;;;28.95;16.25;;;13.20;99.90;;;;;;5001094;28;20375;-83
2022/03/21 12:19:11;;;;;;;26.45;16.17;;;13.30;99.90;;;;;;4978007;28;20491;-79
2022/03/21 12:21:37;;;;;;;25.17;15.77;;;13.30;99.90;;;;;;4992207;28;20154;-78
2022/03/21 12:24:12;;;;;;;32.25;16.58;;;13.50;99.90;;;;;;5002548;28;20053;-78
2022/03/21 12:26:37;;;;;;;25.13;16.20;;;13.50;99.90;;;;;;4980652;28;20046;-79
2022/03/21 12:29:32;;;;;;;26.95;16.13;;;13.50;99.90;;;;;;4999269;28;20177;-78
2022/03/21 12:32:24;;;;;;;33.95;17.10;;;13.50;99.90;;;;;;5000188;28;20045;-78
2022/03/21 12:34:52;;;;;;;28.67;16.70;;;13.50;99.90;;;;;;4985138;28;20394;-78
2022/03/21 12:37:41;;;;;;;26.30;16.23;;;13.50;99.90;;;;;;4991273;28;20049;-78
2022/03/21 12:40:12;;;;;;;26.42;16.73;;;13.50;99.90;;;;;;4990054;28;20481;-78
2022/03/21 12:42:43;;;;;;;27.30;16.75;;;13.60;99.90;;;;;;4987409;28;20034;-79
2022/03/21 12:45:16;;;;;;;24.25;15.85;;;13.60;99.90;;;;;;4992756;28;20065;-78
2022/03/21 12:47:42;;;;;;;23.48;15.35;;;13.60;99.90;;;;;;4987386;28;20046;-80
2022/03/21 12:50:08;;;;;;;28.83;16.40;;;13.70;99.90;;;;;;5004180;28;20845;-81
2022/03/21 12:52:34;;;;;;;28.95;16.83;;;13.70;99.90;;;;;;4992898;28;20041;-81
2022/03/21 12:55:01;;;;;;;23.25;15.43;;;13.80;99.90;;;;;;5001642;28;20058;-79
2022/03/21 12:57:27;;;;;;;25.63;16.58;;;13.80;99.90;;;;;;4994177;28;20505;-79
2022/03/21 13:00:13;;;;;;;27.83;16.17;;;13.80;99.90;;;;;;5008888;28;20049;-79
2022/03/21 13:02:40;;;;;;;25.13;17.05;;;13.80;99.90;;;;;;4978731;28;20485;-79